sensor_id;sensor_type;location;lat;lon;timestamp;P1;durP1;ratioP1;P2;durP2;ratioP2
11865;SDS011;5992;52.744;6.898;2023-08-17T00:02:21;5.17;;;2.53;;
11865;SDS011;5992;52.744;6.898;2023-08-17T00:05:46;3.87;;;2.20;;
11865;SDS011;5992;52.744;6.898;2023-08-17T00:08:58;2.73;;;2.03;;
11865;SDS011;5992;52.744;6.898;2023-08-17T00:12:22;4.40;;;2.00;;
11865;SDS011;5992;52.744;6.898;2023-08-17T00:15:23;8.20;;;2.40;;
11865;SDS011;5992;52.744;6.898;2023-08-17T00:18:38;4.53;;;1.60;;
11865;SDS011;5992;52.744;6.898;2023-08-17T00:21:50;2.50;;;2.00;;
11865;SDS011;5992;52.744;6.898;2023-08-17T00:25:14;4.80;;;1.87;;
11865;SDS011;5992;52.744;6.898;2023-08-17T00:28:26;8.43;;;2.80;;
11865;SDS011;5992;52.744;6.898;2023-08-17T00:31:51;4.80;;;2.50;;
11865;SDS011;5992;52.744;6.898;2023-08-17T00:35:05;6.70;;;1.77;;
11865;SDS011;5992;52.744;6.898;2023-08-17T00:38:29;6.50;;;1.83;;
11865;SDS011;5992;52.744;6.898;2023-08-17T00:41:30;4.70;;;2.30;;
11865;SDS011;5992;52.744;6.898;2023-08-17T00:44:43;3.17;;;1.90;;
11865;SDS011;5992;52.744;6.898;2023-08-17T00:47:44;1.97;;;1.47;;
11865;SDS011;5992;52.744;6.898;2023-08-17T00:51:10;4.67;;;2.07;;
11865;SDS011;5992;52.744;6.898;2023-08-17T00:54:24;5.93;;;2.00;;
11865;SDS011;5992;52.744;6.898;2023-08-17T00:57:47;1.77;;;1.67;;
11865;SDS011;5992;52.744;6.898;2023-08-17T01:00:59;1.70;;;1.60;;
11865;SDS011;5992;52.744;6.898;2023-08-17T01:04:24;2.30;;;1.37;;
11865;SDS011;5992;52.744;6.898;2023-08-17T01:07:27;2.77;;;1.60;;
11865;SDS011;5992;52.744;6.898;2023-08-17T01:10:52;3.10;;;1.77;;
11865;SDS011;5992;52.744;6.898;2023-08-17T01:14:04;4.90;;;1.80;;
11865;SDS011;5992;52.744;6.898;2023-08-17T01:17:29;4.13;;;2.00;;
11865;SDS011;5992;52.744;6.898;2023-08-17T01:20:40;4.83;;;2.03;;
11865;SDS011;5992;52.744;6.898;2023-08-17T01:24:07;6.15;;;1.80;;
11865;SDS011;5992;52.744;6.898;2023-08-17T01:27:20;2.47;;;1.50;;
11865;SDS011;5992;52.744;6.898;2023-08-17T01:30:35;3.33;;;1.93;;
11865;SDS011;5992;52.744;6.898;2023-08-17T01:33:58;5.10;;;2.10;;
11865;SDS011;5992;52.744;6.898;2023-08-17T01:37:22;7.25;;;2.25;;
11865;SDS011;5992;52.744;6.898;2023-08-17T01:40:39;5.10;;;1.60;;
11865;SDS011;5992;52.744;6.898;2023-08-17T01:44:05;4.07;;;1.53;;
11865;SDS011;5992;52.744;6.898;2023-08-17T01:47:20;4.93;;;2.03;;
11865;SDS011;5992;52.744;6.898;2023-08-17T01:50:45;5.60;;;1.70;;
11865;SDS011;5992;52.744;6.898;2023-08-17T01:53:57;3.00;;;1.67;;
11865;SDS011;5992;52.744;6.898;2023-08-17T01:57:12;4.97;;;1.97;;
11865;SDS011;5992;52.744;6.898;2023-08-17T02:00:36;3.77;;;1.37;;
11865;SDS011;5992;52.744;6.898;2023-08-17T02:03:49;2.67;;;1.70;;
11865;SDS011;5992;52.744;6.898;2023-08-17T02:06:50;3.87;;;1.67;;
11865;SDS011;5992;52.744;6.898;2023-08-17T02:10:03;9.50;;;2.17;;
11865;SDS011;5992;52.744;6.898;2023-08-17T02:13:06;3.27;;;1.70;;
11865;SDS011;5992;52.744;6.898;2023-08-17T02:16:29;6.00;;;2.07;;
11865;SDS011;5992;52.744;6.898;2023-08-17T02:19:30;6.13;;;2.33;;
11865;SDS011;5992;52.744;6.898;2023-08-17T02:22:54;3.90;;;1.90;;
11865;SDS011;5992;52.744;6.898;2023-08-17T02:25:55;6.10;;;1.70;;
11865;SDS011;5992;52.744;6.898;2023-08-17T02:29:11;5.73;;;1.70;;
11865;SDS011;5992;52.744;6.898;2023-08-17T02:32:23;3.00;;;1.30;;
11865;SDS011;5992;52.744;6.898;2023-08-17T02:35:36;3.00;;;2.00;;
11865;SDS011;5992;52.744;6.898;2023-08-17T02:38:37;6.67;;;1.83;;
11865;SDS011;5992;52.744;6.898;2023-08-17T02:41:50;3.55;;;1.40;;
11865;SDS011;5992;52.744;6.898;2023-08-17T02:44:53;5.70;;;2.20;;
11865;SDS011;5992;52.744;6.898;2023-08-17T02:48:18;1.90;;;1.40;;
11865;SDS011;5992;52.744;6.898;2023-08-17T02:51:29;2.97;;;2.00;;
11865;SDS011;5992;52.744;6.898;2023-08-17T02:54:43;3.90;;;2.10;;
11865;SDS011;5992;52.744;6.898;2023-08-17T02:57:44;2.65;;;1.70;;
11865;SDS011;5992;52.744;6.898;2023-08-17T03:01:11;4.60;;;1.55;;
11865;SDS011;5992;52.744;6.898;2023-08-17T03:04:23;2.13;;;1.60;;
11865;SDS011;5992;52.744;6.898;2023-08-17T03:07:47;4.63;;;1.97;;
11865;SDS011;5992;52.744;6.898;2023-08-17T03:10:48;2.30;;;1.83;;
11865;SDS011;5992;52.744;6.898;2023-08-17T03:14:01;3.07;;;1.40;;
11865;SDS011;5992;52.744;6.898;2023-08-17T03:17:15;3.33;;;1.80;;
11865;SDS011;5992;52.744;6.898;2023-08-17T03:20:38;1.90;;;1.60;;
11865;SDS011;5992;52.744;6.898;2023-08-17T03:23:51;3.40;;;1.40;;
11865;SDS011;5992;52.744;6.898;2023-08-17T03:27:14;2.20;;;1.30;;
11865;SDS011;5992;52.744;6.898;2023-08-17T03:30:27;7.33;;;1.80;;
11865;SDS011;5992;52.744;6.898;2023-08-17T03:33:43;1.60;;;1.37;;
11865;SDS011;5992;52.744;6.898;2023-08-17T03:37:07;3.27;;;1.43;;
11865;SDS011;5992;52.744;6.898;2023-08-17T03:40:31;2.05;;;1.30;;
11865;SDS011;5992;52.744;6.898;2023-08-17T03:43:45;2.20;;;1.37;;
11865;SDS011;5992;52.744;6.898;2023-08-17T03:46:59;3.87;;;1.53;;
11865;SDS011;5992;52.744;6.898;2023-08-17T03:50:01;2.53;;;1.70;;
11865;SDS011;5992;52.744;6.898;2023-08-17T03:53:25;3.07;;;1.60;;
11865;SDS011;5992;52.744;6.898;2023-08-17T03:56:38;1.77;;;1.67;;
11865;SDS011;5992;52.744;6.898;2023-08-17T03:59:51;4.80;;;2.10;;
11865;SDS011;5992;52.744;6.898;2023-08-17T04:02:52;3.50;;;2.07;;
11865;SDS011;5992;52.744;6.898;2023-08-17T04:06:07;5.50;;;2.00;;
11865;SDS011;5992;52.744;6.898;2023-08-17T04:09:19;4.13;;;2.13;;
11865;SDS011;5992;52.744;6.898;2023-08-17T04:12:32;7.63;;;2.10;;
11865;SDS011;5992;52.744;6.898;2023-08-17T04:15:34;5.47;;;2.03;;
11865;SDS011;5992;52.744;6.898;2023-08-17T04:18:47;3.63;;;2.30;;
11865;SDS011;5992;52.744;6.898;2023-08-17T04:22:01;5.63;;;2.20;;
11865;SDS011;5992;52.744;6.898;2023-08-17T04:25:27;2.97;;;1.80;;
11865;SDS011;5992;52.744;6.898;2023-08-17T04:28:39;5.37;;;1.87;;
11865;SDS011;5992;52.744;6.898;2023-08-17T04:31:52;7.20;;;1.90;;
11865;SDS011;5992;52.744;6.898;2023-08-17T04:35:04;4.70;;;1.63;;
11865;SDS011;5992;52.744;6.898;2023-08-17T04:38:18;6.93;;;1.90;;
11865;SDS011;5992;52.744;6.898;2023-08-17T04:41:43;3.40;;;1.85;;
11865;SDS011;5992;52.744;6.898;2023-08-17T04:45:08;6.77;;;2.50;;
11865;SDS011;5992;52.744;6.898;2023-08-17T04:48:33;5.57;;;1.97;;
11865;SDS011;5992;52.744;6.898;2023-08-17T04:51:46;5.00;;;2.30;;
11865;SDS011;5992;52.744;6.898;2023-08-17T04:55:00;2.47;;;1.83;;
11865;SDS011;5992;52.744;6.898;2023-08-17T04:58:24;5.97;;;2.30;;
11865;SDS011;5992;52.744;6.898;2023-08-17T05:01:37;4.17;;;2.40;;
11865;SDS011;5992;52.744;6.898;2023-08-17T05:04:50;5.17;;;2.17;;
11865;SDS011;5992;52.744;6.898;2023-08-17T05:08:03;2.90;;;1.90;;
11865;SDS011;5992;52.744;6.898;2023-08-17T05:11:17;3.07;;;2.10;;
11865;SDS011;5992;52.744;6.898;2023-08-17T05:14:30;2.57;;;1.77;;
11865;SDS011;5992;52.744;6.898;2023-08-17T05:17:44;2.70;;;1.80;;
11865;SDS011;5992;52.744;6.898;2023-08-17T05:20:57;2.15;;;1.85;;
11865;SDS011;5992;52.744;6.898;2023-08-17T05:24:11;4.97;;;2.93;;
11865;SDS011;5992;52.744;6.898;2023-08-17T05:27:13;4.67;;;2.00;;
11865;SDS011;5992;52.744;6.898;2023-08-17T05:30:38;4.80;;;1.90;;
11865;SDS011;5992;52.744;6.898;2023-08-17T05:34:02;2.87;;;1.90;;
11865;SDS011;5992;52.744;6.898;2023-08-17T05:37:16;4.97;;;2.20;;
11865;SDS011;5992;52.744;6.898;2023-08-17T05:40:29;4.03;;;1.90;;
11865;SDS011;5992;52.744;6.898;2023-08-17T05:43:54;4.37;;;1.70;;
11865;SDS011;5992;52.744;6.898;2023-08-17T05:47:07;2.75;;;1.65;;
11865;SDS011;5992;52.744;6.898;2023-08-17T05:50:31;2.67;;;2.07;;
11865;SDS011;5992;52.744;6.898;2023-08-17T05:53:44;1.67;;;1.57;;
11865;SDS011;5992;52.744;6.898;2023-08-17T05:56:57;7.37;;;1.87;;
11865;SDS011;5992;52.744;6.898;2023-08-17T05:59:59;2.00;;;1.40;;
11865;SDS011;5992;52.744;6.898;2023-08-17T06:03:23;5.40;;;2.00;;
11865;SDS011;5992;52.744;6.898;2023-08-17T06:06:24;5.03;;;1.93;;
11865;SDS011;5992;52.744;6.898;2023-08-17T06:09:38;4.43;;;1.60;;
11865;SDS011;5992;52.744;6.898;2023-08-17T06:12:50;3.07;;;1.63;;
11865;SDS011;5992;52.744;6.898;2023-08-17T06:16:16;6.60;;;1.87;;
11865;SDS011;5992;52.744;6.898;2023-08-17T06:19:29;3.63;;;1.57;;
11865;SDS011;5992;52.744;6.898;2023-08-17T06:22:46;2.40;;;1.40;;
11865;SDS011;5992;52.744;6.898;2023-08-17T06:25:57;3.77;;;1.83;;
11865;SDS011;5992;52.744;6.898;2023-08-17T06:29:22;5.00;;;1.93;;
11865;SDS011;5992;52.744;6.898;2023-08-17T06:32:25;4.83;;;1.63;;
11865;SDS011;5992;52.744;6.898;2023-08-17T06:35:50;2.07;;;1.30;;
11865;SDS011;5992;52.744;6.898;2023-08-17T06:39:02;5.45;;;2.25;;
11865;SDS011;5992;52.744;6.898;2023-08-17T06:42:16;2.87;;;1.60;;
11865;SDS011;5992;52.744;6.898;2023-08-17T06:45:17;3.17;;;1.57;;
11865;SDS011;5992;52.744;6.898;2023-08-17T06:48:33;5.63;;;1.70;;
11865;SDS011;5992;52.744;6.898;2023-08-17T06:51:57;4.27;;;1.33;;
11865;SDS011;5992;52.744;6.898;2023-08-17T06:55:11;5.43;;;1.23;;
11865;SDS011;5992;52.744;6.898;2023-08-17T06:58:12;1.80;;;1.53;;
11865;SDS011;5992;52.744;6.898;2023-08-17T07:01:25;6.20;;;1.50;;
11865;SDS011;5992;52.744;6.898;2023-08-17T07:04:27;3.80;;;1.35;;
11865;SDS011;5992;52.744;6.898;2023-08-17T07:07:52;1.47;;;1.10;;
11865;SDS011;5992;52.744;6.898;2023-08-17T07:11:04;3.83;;;1.60;;
11865;SDS011;5992;52.744;6.898;2023-08-17T07:14:31;3.83;;;1.60;;
11865;SDS011;5992;52.744;6.898;2023-08-17T07:17:32;2.70;;;1.77;;
11865;SDS011;5992;52.744;6.898;2023-08-17T07:20:58;4.57;;;1.50;;
11865;SDS011;5992;52.744;6.898;2023-08-17T07:24:12;5.70;;;1.50;;
11865;SDS011;5992;52.744;6.898;2023-08-17T07:27:37;1.97;;;1.23;;
11865;SDS011;5992;52.744;6.898;2023-08-17T07:30:38;2.70;;;1.27;;
11865;SDS011;5992;52.744;6.898;2023-08-17T07:33:52;4.47;;;1.50;;
11865;SDS011;5992;52.744;6.898;2023-08-17T07:36:55;3.10;;;1.57;;
11865;SDS011;5992;52.744;6.898;2023-08-17T07:40:19;1.60;;;1.27;;
11865;SDS011;5992;52.744;6.898;2023-08-17T07:43:20;3.35;;;1.40;;
11865;SDS011;5992;52.744;6.898;2023-08-17T07:46:37;2.40;;;1.50;;
11865;SDS011;5992;52.744;6.898;2023-08-17T07:49:38;1.37;;;1.07;;
11865;SDS011;5992;52.744;6.898;2023-08-17T07:52:53;2.93;;;1.20;;
11865;SDS011;5992;52.744;6.898;2023-08-17T07:56:05;2.03;;;1.30;;
11865;SDS011;5992;52.744;6.898;2023-08-17T07:59:18;3.07;;;1.67;;
11865;SDS011;5992;52.744;6.898;2023-08-17T08:02:19;1.80;;;1.25;;
11865;SDS011;5992;52.744;6.898;2023-08-17T08:05:32;2.73;;;1.43;;
11865;SDS011;5992;52.744;6.898;2023-08-17T08:08:46;5.80;;;1.30;;
11865;SDS011;5992;52.744;6.898;2023-08-17T08:12:10;2.40;;;1.70;;
11865;SDS011;5992;52.744;6.898;2023-08-17T08:15:10;3.80;;;1.67;;
11865;SDS011;5992;52.744;6.898;2023-08-17T08:18:24;4.00;;;1.90;;
11865;SDS011;5992;52.744;6.898;2023-08-17T08:21:38;1.53;;;1.20;;
11865;SDS011;5992;52.744;6.898;2023-08-17T08:24:53;2.37;;;1.40;;
11865;SDS011;5992;52.744;6.898;2023-08-17T08:28:05;3.50;;;1.47;;
11865;SDS011;5992;52.744;6.898;2023-08-17T08:31:31;4.40;;;1.43;;
11865;SDS011;5992;52.744;6.898;2023-08-17T08:34:32;2.80;;;1.30;;
11865;SDS011;5992;52.744;6.898;2023-08-17T08:37:45;2.80;;;1.40;;
11865;SDS011;5992;52.744;6.898;2023-08-17T08:40:48;3.37;;;1.57;;
11865;SDS011;5992;52.744;6.898;2023-08-17T08:44:13;2.10;;;1.30;;
11865;SDS011;5992;52.744;6.898;2023-08-17T08:47:25;2.13;;;1.77;;
11865;SDS011;5992;52.744;6.898;2023-08-17T08:50:50;2.57;;;1.20;;
11865;SDS011;5992;52.744;6.898;2023-08-17T08:54:03;1.77;;;1.30;;
11865;SDS011;5992;52.744;6.898;2023-08-17T08:57:29;3.13;;;1.40;;
11865;SDS011;5992;52.744;6.898;2023-08-17T09:00:41;2.50;;;1.30;;
11865;SDS011;5992;52.744;6.898;2023-08-17T09:04:06;2.63;;;1.27;;
11865;SDS011;5992;52.744;6.898;2023-08-17T09:07:18;2.93;;;1.53;;
11865;SDS011;5992;52.744;6.898;2023-08-17T09:10:43;2.97;;;1.10;;
11865;SDS011;5992;52.744;6.898;2023-08-17T09:13:57;3.63;;;1.40;;
11865;SDS011;5992;52.744;6.898;2023-08-17T09:17:23;3.47;;;1.50;;
11865;SDS011;5992;52.744;6.898;2023-08-17T09:20:37;1.30;;;1.20;;
11865;SDS011;5992;52.744;6.898;2023-08-17T09:24:03;2.40;;;1.63;;
11865;SDS011;5992;52.744;6.898;2023-08-17T09:27:04;1.93;;;1.40;;
11865;SDS011;5992;52.744;6.898;2023-08-17T09:30:31;4.17;;;1.80;;
11865;SDS011;5992;52.744;6.898;2023-08-17T09:33:44;2.43;;;1.57;;
11865;SDS011;5992;52.744;6.898;2023-08-17T09:37:09;3.43;;;1.40;;
11865;SDS011;5992;52.744;6.898;2023-08-17T09:40:21;5.80;;;2.13;;
11865;SDS011;5992;52.744;6.898;2023-08-17T09:43:35;7.50;;;1.75;;
11865;SDS011;5992;52.744;6.898;2023-08-17T09:46:48;3.47;;;1.73;;
11865;SDS011;5992;52.744;6.898;2023-08-17T09:50:13;2.07;;;1.83;;
11865;SDS011;5992;52.744;6.898;2023-08-17T09:53:14;6.00;;;1.80;;
11865;SDS011;5992;52.744;6.898;2023-08-17T09:56:39;3.20;;;1.70;;
11865;SDS011;5992;52.744;6.898;2023-08-17T09:59:52;3.77;;;1.97;;
11865;SDS011;5992;52.744;6.898;2023-08-17T10:03:06;1.90;;;1.70;;
11865;SDS011;5992;52.744;6.898;2023-08-17T10:06:20;4.67;;;1.73;;
11865;SDS011;5992;52.744;6.898;2023-08-17T10:09:44;4.40;;;2.43;;
11865;SDS011;5992;52.744;6.898;2023-08-17T10:12:59;4.80;;;1.77;;
11865;SDS011;5992;52.744;6.898;2023-08-17T10:16:23;1.70;;;1.60;;
11865;SDS011;5992;52.744;6.898;2023-08-17T10:19:37;2.10;;;1.80;;
11865;SDS011;5992;52.744;6.898;2023-08-17T10:23:01;2.53;;;1.80;;
11865;SDS011;5992;52.744;6.898;2023-08-17T10:26:13;2.33;;;1.53;;
11865;SDS011;5992;52.744;6.898;2023-08-17T10:29:38;3.73;;;1.40;;
11865;SDS011;5992;52.744;6.898;2023-08-17T10:32:50;2.47;;;1.57;;
11865;SDS011;5992;52.744;6.898;2023-08-17T10:36:15;2.67;;;2.00;;
11865;SDS011;5992;52.744;6.898;2023-08-17T10:39:28;3.40;;;1.60;;
11865;SDS011;5992;52.744;6.898;2023-08-17T10:42:53;2.13;;;1.93;;
11865;SDS011;5992;52.744;6.898;2023-08-17T10:46:14;2.13;;;1.80;;
11865;SDS011;5992;52.744;6.898;2023-08-17T10:49:38;2.60;;;1.60;;
11865;SDS011;5992;52.744;6.898;2023-08-17T10:52:53;5.00;;;2.00;;
11865;SDS011;5992;52.744;6.898;2023-08-17T10:56:16;2.47;;;2.07;;
11865;SDS011;5992;52.744;6.898;2023-08-17T10:59:28;1.93;;;1.80;;
11865;SDS011;5992;52.744;6.898;2023-08-17T11:02:53;3.60;;;1.83;;
11865;SDS011;5992;52.744;6.898;2023-08-17T11:06:13;7.37;;;2.00;;
11865;SDS011;5992;52.744;6.898;2023-08-17T11:09:38;3.57;;;2.10;;
11865;SDS011;5992;52.744;6.898;2023-08-17T11:12:52;4.17;;;1.80;;
11865;SDS011;5992;52.744;6.898;2023-08-17T11:16:17;6.10;;;1.83;;
11865;SDS011;5992;52.744;6.898;2023-08-17T11:19:29;2.35;;;2.00;;
11865;SDS011;5992;52.744;6.898;2023-08-17T11:22:43;4.20;;;2.47;;
11865;SDS011;5992;52.744;6.898;2023-08-17T11:25:56;7.10;;;2.13;;
11865;SDS011;5992;52.744;6.898;2023-08-17T11:29:21;3.80;;;1.90;;
11865;SDS011;5992;52.744;6.898;2023-08-17T11:32:36;4.57;;;2.03;;
11865;SDS011;5992;52.744;6.898;2023-08-17T11:35:50;4.25;;;2.70;;
11865;SDS011;5992;52.744;6.898;2023-08-17T11:38:51;2.83;;;2.50;;
11865;SDS011;5992;52.744;6.898;2023-08-17T11:42:16;3.83;;;2.27;;
11865;SDS011;5992;52.744;6.898;2023-08-17T11:45:29;5.23;;;2.60;;
11865;SDS011;5992;52.744;6.898;2023-08-17T11:48:53;2.77;;;2.17;;
11865;SDS011;5992;52.744;6.898;2023-08-17T11:52:17;5.57;;;2.63;;
11865;SDS011;5992;52.744;6.898;2023-08-17T11:55:41;5.03;;;2.20;;
11865;SDS011;5992;52.744;6.898;2023-08-17T11:58:54;2.03;;;1.87;;
11865;SDS011;5992;52.744;6.898;2023-08-17T12:02:20;3.50;;;2.13;;
11865;SDS011;5992;52.744;6.898;2023-08-17T12:05:45;3.37;;;2.00;;
11865;SDS011;5992;52.744;6.898;2023-08-17T12:08:57;2.93;;;2.50;;
11865;SDS011;5992;52.744;6.898;2023-08-17T12:12:21;5.30;;;2.40;;
11865;SDS011;5992;52.744;6.898;2023-08-17T12:15:34;1.93;;;1.83;;
11865;SDS011;5992;52.744;6.898;2023-08-17T12:18:59;3.30;;;1.90;;
11865;SDS011;5992;52.744;6.898;2023-08-17T12:22:01;2.60;;;2.40;;
11865;SDS011;5992;52.744;6.898;2023-08-17T12:25:26;2.47;;;2.27;;
11865;SDS011;5992;52.744;6.898;2023-08-17T12:28:39;4.13;;;2.83;;
11865;SDS011;5992;52.744;6.898;2023-08-17T12:32:05;3.07;;;2.37;;
11865;SDS011;5992;52.744;6.898;2023-08-17T12:35:17;2.10;;;1.90;;
11865;SDS011;5992;52.744;6.898;2023-08-17T12:38:31;2.83;;;2.07;;
11865;SDS011;5992;52.744;6.898;2023-08-17T12:41:46;2.50;;;2.13;;
11865;SDS011;5992;52.744;6.898;2023-08-17T12:44:59;4.30;;;2.10;;
11865;SDS011;5992;52.744;6.898;2023-08-17T12:48:02;2.73;;;1.87;;
11865;SDS011;5992;52.744;6.898;2023-08-17T12:51:26;2.33;;;1.57;;
11865;SDS011;5992;52.744;6.898;2023-08-17T12:54:27;3.63;;;2.00;;
11865;SDS011;5992;52.744;6.898;2023-08-17T12:57:39;3.60;;;2.50;;
11865;SDS011;5992;52.744;6.898;2023-08-17T13:00:40;3.37;;;2.23;;
11865;SDS011;5992;52.744;6.898;2023-08-17T13:03:56;3.40;;;2.47;;
11865;SDS011;5992;52.744;6.898;2023-08-17T13:07:08;3.97;;;2.67;;
11865;SDS011;5992;52.744;6.898;2023-08-17T13:10:21;3.53;;;2.10;;
11865;SDS011;5992;52.744;6.898;2023-08-17T13:13:33;4.10;;;2.40;;
11865;SDS011;5992;52.744;6.898;2023-08-17T13:16:47;5.83;;;2.73;;
11865;SDS011;5992;52.744;6.898;2023-08-17T13:20:02;4.13;;;3.00;;
11865;SDS011;5992;52.744;6.898;2023-08-17T13:23:27;3.33;;;2.90;;
11865;SDS011;5992;52.744;6.898;2023-08-17T13:26:28;3.83;;;3.33;;
11865;SDS011;5992;52.744;6.898;2023-08-17T13:29:53;4.93;;;2.50;;
11865;SDS011;5992;52.744;6.898;2023-08-17T13:32:55;2.97;;;2.60;;
11865;SDS011;5992;52.744;6.898;2023-08-17T13:36:20;2.53;;;2.33;;
11865;SDS011;5992;52.744;6.898;2023-08-17T13:39:31;2.40;;;2.20;;
11865;SDS011;5992;52.744;6.898;2023-08-17T13:42:44;2.90;;;2.63;;
11865;SDS011;5992;52.744;6.898;2023-08-17T13:45:45;6.33;;;2.73;;
11865;SDS011;5992;52.744;6.898;2023-08-17T13:48:58;2.03;;;1.93;;
11865;SDS011;5992;52.744;6.898;2023-08-17T13:52:01;5.00;;;3.13;;
11865;SDS011;5992;52.744;6.898;2023-08-17T13:55:25;2.30;;;2.10;;
11865;SDS011;5992;52.744;6.898;2023-08-17T13:58:37;2.55;;;2.10;;
11865;SDS011;5992;52.744;6.898;2023-08-17T14:01:50;2.55;;;2.10;;
11865;SDS011;5992;52.744;6.898;2023-08-17T14:05:05;2.63;;;2.20;;
11865;SDS011;5992;52.744;6.898;2023-08-17T14:08:07;2.10;;;2.00;;
11865;SDS011;5992;52.744;6.898;2023-08-17T14:11:31;3.73;;;2.00;;
11865;SDS011;5992;52.744;6.898;2023-08-17T14:14:43;2.20;;;2.00;;
11865;SDS011;5992;52.744;6.898;2023-08-17T14:17:56;2.90;;;1.90;;
11865;SDS011;5992;52.744;6.898;2023-08-17T14:20:57;3.23;;;2.43;;
11865;SDS011;5992;52.744;6.898;2023-08-17T14:24:14;2.83;;;1.97;;
11865;SDS011;5992;52.744;6.898;2023-08-17T14:27:26;2.37;;;2.20;;
11865;SDS011;5992;52.744;6.898;2023-08-17T14:30:39;2.70;;;2.17;;
11865;SDS011;5992;52.744;6.898;2023-08-17T14:33:40;2.77;;;2.13;;
11865;SDS011;5992;52.744;6.898;2023-08-17T14:36:53;3.20;;;2.47;;
11865;SDS011;5992;52.744;6.898;2023-08-17T14:39:56;3.95;;;2.45;;
11865;SDS011;5992;52.744;6.898;2023-08-17T14:43:20;3.60;;;2.53;;
11865;SDS011;5992;52.744;6.898;2023-08-17T14:46:21;2.80;;;2.50;;
11865;SDS011;5992;52.744;6.898;2023-08-17T14:49:46;3.83;;;2.73;;
11865;SDS011;5992;52.744;6.898;2023-08-17T14:52:46;2.47;;;2.27;;
11865;SDS011;5992;52.744;6.898;2023-08-17T14:56:01;2.65;;;1.90;;
11865;SDS011;5992;52.744;6.898;2023-08-17T14:59:13;4.87;;;2.30;;
11865;SDS011;5992;52.744;6.898;2023-08-17T15:02:25;2.50;;;2.30;;
11865;SDS011;5992;52.744;6.898;2023-08-17T15:05:27;2.27;;;2.07;;
11865;SDS011;5992;52.744;6.898;2023-08-17T15:08:51;4.27;;;2.47;;
11865;SDS011;5992;52.744;6.898;2023-08-17T15:11:53;2.13;;;2.00;;
11865;SDS011;5992;52.744;6.898;2023-08-17T15:15:19;3.17;;;2.10;;
11865;SDS011;5992;52.744;6.898;2023-08-17T15:18:31;2.00;;;1.90;;
11865;SDS011;5992;52.744;6.898;2023-08-17T15:21:44;2.73;;;2.40;;
11865;SDS011;5992;52.744;6.898;2023-08-17T15:24:45;2.97;;;2.70;;
11865;SDS011;5992;52.744;6.898;2023-08-17T15:28:00;2.47;;;2.30;;
11865;SDS011;5992;52.744;6.898;2023-08-17T15:31:13;3.43;;;2.10;;
11865;SDS011;5992;52.744;6.898;2023-08-17T15:34:27;2.20;;;2.00;;
11865;SDS011;5992;52.744;6.898;2023-08-17T15:37:39;3.97;;;2.10;;
11865;SDS011;5992;52.744;6.898;2023-08-17T15:41:03;3.17;;;2.40;;
11865;SDS011;5992;52.744;6.898;2023-08-17T15:44:05;2.50;;;2.30;;
11865;SDS011;5992;52.744;6.898;2023-08-17T15:47:30;2.90;;;2.40;;
11865;SDS011;5992;52.744;6.898;2023-08-17T15:50:44;2.33;;;2.13;;
11865;SDS011;5992;52.744;6.898;2023-08-17T15:53:57;2.37;;;2.17;;
11865;SDS011;5992;52.744;6.898;2023-08-17T15:56:59;2.05;;;1.90;;
11865;SDS011;5992;52.744;6.898;2023-08-17T16:00:24;2.20;;;2.00;;
11865;SDS011;5992;52.744;6.898;2023-08-17T16:03:50;2.27;;;1.93;;
11865;SDS011;5992;52.744;6.898;2023-08-17T16:07:02;2.93;;;2.07;;
11865;SDS011;5992;52.744;6.898;2023-08-17T16:10:16;2.30;;;2.10;;
11865;SDS011;5992;52.744;6.898;2023-08-17T16:13:17;2.80;;;2.10;;
11865;SDS011;5992;52.744;6.898;2023-08-17T16:16:43;3.23;;;2.30;;
11865;SDS011;5992;52.744;6.898;2023-08-17T16:19:56;3.15;;;2.35;;
11865;SDS011;5992;52.744;6.898;2023-08-17T16:23:10;2.77;;;1.87;;
11865;SDS011;5992;52.744;6.898;2023-08-17T16:26:11;2.13;;;1.90;;
11865;SDS011;5992;52.744;6.898;2023-08-17T16:29:24;2.50;;;1.70;;
11865;SDS011;5992;52.744;6.898;2023-08-17T16:32:26;3.40;;;2.33;;
11865;SDS011;5992;52.744;6.898;2023-08-17T16:35:51;3.20;;;2.00;;
11865;SDS011;5992;52.744;6.898;2023-08-17T16:38:52;4.13;;;1.90;;
11865;SDS011;5992;52.744;6.898;2023-08-17T16:42:04;2.10;;;1.90;;
11865;SDS011;5992;52.744;6.898;2023-08-17T16:45:05;2.70;;;2.10;;
11865;SDS011;5992;52.744;6.898;2023-08-17T16:48:22;2.13;;;1.70;;
11865;SDS011;5992;52.744;6.898;2023-08-17T16:51:36;2.03;;;1.80;;
11865;SDS011;5992;52.744;6.898;2023-08-17T16:54:54;3.20;;;1.80;;
11865;SDS011;5992;52.744;6.898;2023-08-17T17:01:19;1.90;;;1.70;;
11865;SDS011;5992;52.744;6.898;2023-08-17T17:04:44;10.90;;;2.13;;
11865;SDS011;5992;52.744;6.898;2023-08-17T17:07:57;2.13;;;1.90;;
11865;SDS011;5992;52.744;6.898;2023-08-17T17:11:11;2.27;;;2.17;;
11865;SDS011;5992;52.744;6.898;2023-08-17T17:14:23;2.33;;;2.23;;
11865;SDS011;5992;52.744;6.898;2023-08-17T17:17:36;4.63;;;2.10;;
11865;SDS011;5992;52.744;6.898;2023-08-17T17:20:38;2.37;;;2.10;;
11865;SDS011;5992;52.744;6.898;2023-08-17T17:24:03;2.10;;;2.00;;
11865;SDS011;5992;52.744;6.898;2023-08-17T17:27:04;2.63;;;2.03;;
11865;SDS011;5992;52.744;6.898;2023-08-17T17:30:17;3.23;;;2.60;;
11865;SDS011;5992;52.744;6.898;2023-08-17T17:33:18;4.33;;;2.20;;
11865;SDS011;5992;52.744;6.898;2023-08-17T17:36:33;2.67;;;2.20;;
11865;SDS011;5992;52.744;6.898;2023-08-17T17:39:48;4.53;;;2.63;;
11865;SDS011;5992;52.744;6.898;2023-08-17T17:43:02;2.50;;;2.30;;
11865;SDS011;5992;52.744;6.898;2023-08-17T17:46:03;3.27;;;2.83;;
11865;SDS011;5992;52.744;6.898;2023-08-17T17:49:16;2.93;;;2.60;;
11865;SDS011;5992;52.744;6.898;2023-08-17T17:52:18;3.53;;;2.67;;
11865;SDS011;5992;52.744;6.898;2023-08-17T17:55:44;7.23;;;3.37;;
11865;SDS011;5992;52.744;6.898;2023-08-17T17:58:45;3.25;;;2.95;;
11865;SDS011;5992;52.744;6.898;2023-08-17T18:01:58;3.47;;;3.13;;
11865;SDS011;5992;52.744;6.898;2023-08-17T18:05:11;2.90;;;2.70;;
11865;SDS011;5992;52.744;6.898;2023-08-17T18:08:14;3.30;;;3.10;;
11865;SDS011;5992;52.744;6.898;2023-08-17T18:11:42;5.27;;;3.50;;
11865;SDS011;5992;52.744;6.898;2023-08-17T18:14:43;2.70;;;2.50;;
11865;SDS011;5992;52.744;6.898;2023-08-17T18:18:07;2.47;;;2.20;;
11865;SDS011;5992;52.744;6.898;2023-08-17T18:21:19;2.27;;;2.10;;
11865;SDS011;5992;52.744;6.898;2023-08-17T18:24:34;4.63;;;2.23;;
11865;SDS011;5992;52.744;6.898;2023-08-17T18:27:46;1.90;;;1.80;;
11865;SDS011;5992;52.744;6.898;2023-08-17T18:30:59;1.80;;;1.70;;
11865;SDS011;5992;52.744;6.898;2023-08-17T18:34:11;2.03;;;1.93;;
11865;SDS011;5992;52.744;6.898;2023-08-17T18:37:36;2.87;;;2.09;;
11865;SDS011;5992;52.744;6.898;2023-08-17T18:40:50;1.60;;;1.50;;
11865;SDS011;5992;52.744;6.898;2023-08-17T18:44:14;1.90;;;1.80;;
11865;SDS011;5992;52.744;6.898;2023-08-17T18:47:16;2.27;;;1.77;;
11865;SDS011;5992;52.744;6.898;2023-08-17T18:50:30;3.20;;;2.25;;
11865;SDS011;5992;52.744;6.898;2023-08-17T18:53:31;2.37;;;1.40;;
11865;SDS011;5992;52.744;6.898;2023-08-17T18:56:47;0.80;;;0.80;;
11865;SDS011;5992;52.744;6.898;2023-08-17T18:59:59;1.23;;;1.13;;
11865;SDS011;5992;52.744;6.898;2023-08-17T19:03:13;1.30;;;1.20;;
11865;SDS011;5992;52.744;6.898;2023-08-17T19:06:27;1.57;;;1.20;;
11865;SDS011;5992;52.744;6.898;2023-08-17T19:09:41;4.03;;;1.20;;
11865;SDS011;5992;52.744;6.898;2023-08-17T19:12:45;1.47;;;0.97;;
11865;SDS011;5992;52.744;6.898;2023-08-17T19:16:09;1.13;;;0.90;;
11865;SDS011;5992;52.744;6.898;2023-08-17T19:19:10;1.90;;;1.17;;
11865;SDS011;5992;52.744;6.898;2023-08-17T19:22:24;1.20;;;1.10;;
11865;SDS011;5992;52.744;6.898;2023-08-17T19:25:26;1.37;;;0.90;;
11865;SDS011;5992;52.744;6.898;2023-08-17T19:28:41;1.30;;;0.83;;
11865;SDS011;5992;52.744;6.898;2023-08-17T19:31:42;0.97;;;0.77;;
11865;SDS011;5992;52.744;6.898;2023-08-17T19:34:55;2.73;;;1.30;;
11865;SDS011;5992;52.744;6.898;2023-08-17T19:37:56;1.50;;;1.40;;
11865;SDS011;5992;52.744;6.898;2023-08-17T19:41:22;1.13;;;1.10;;
11865;SDS011;5992;52.744;6.898;2023-08-17T19:44:25;1.43;;;1.13;;
11865;SDS011;5992;52.744;6.898;2023-08-17T19:47:50;1.30;;;1.30;;
11865;SDS011;5992;52.744;6.898;2023-08-17T19:50:53;1.97;;;1.20;;